sensor_id;sensor_type;location;lat;lon;timestamp;P1;durP1;ratioP1;P2;durP2;ratioP2
60030;SDS011;45901;47.600;9.890;2024-03-07T00:00:01;10.20;;;6.20;;
60030;SDS011;45901;47.600;9.890;2024-03-07T00:02:32;9.33;;;6.10;;
60030;SDS011;45901;47.600;9.890;2024-03-07T00:05:00;7.83;;;5.10;;
60030;SDS011;45901;47.600;9.890;2024-03-07T00:07:27;8.23;;;5.33;;
60030;SDS011;45901;47.600;9.890;2024-03-07T00:09:54;7.90;;;5.07;;
60030;SDS011;45901;47.600;9.890;2024-03-07T00:12:21;8.43;;;5.27;;
60030;SDS011;45901;47.600;9.890;2024-03-07T00:14:50;7.87;;;5.17;;
60030;SDS011;45901;47.600;9.890;2024-03-07T00:17:17;6.70;;;4.50;;
60030;SDS011;45901;47.600;9.890;2024-03-07T00:19:44;4.73;;;3.40;;
60030;SDS011;45901;47.600;9.890;2024-03-07T00:22:13;5.17;;;3.70;;
60030;SDS011;45901;47.600;9.890;2024-03-07T00:24:40;4.47;;;2.97;;
60030;SDS011;45901;47.600;9.890;2024-03-07T00:27:08;3.93;;;2.93;;
60030;SDS011;45901;47.600;9.890;2024-03-07T00:29:35;4.37;;;3.13;;
60030;SDS011;45901;47.600;9.890;2024-03-07T00:32:04;4.37;;;2.97;;
60030;SDS011;45901;47.600;9.890;2024-03-07T00:34:31;4.13;;;2.90;;
60030;SDS011;45901;47.600;9.890;2024-03-07T00:36:58;4.30;;;3.40;;
60030;SDS011;45901;47.600;9.890;2024-03-07T00:39:26;4.97;;;3.63;;
60030;SDS011;45901;47.600;9.890;2024-03-07T00:41:53;5.03;;;3.47;;
60030;SDS011;45901;47.600;9.890;2024-03-07T00:44:20;5.23;;;3.90;;
60030;SDS011;45901;47.600;9.890;2024-03-07T00:46:47;4.53;;;2.83;;
60030;SDS011;45901;47.600;9.890;2024-03-07T00:49:15;3.73;;;2.90;;
60030;SDS011;45901;47.600;9.890;2024-03-07T00:51:43;4.37;;;3.20;;
60030;SDS011;45901;47.600;9.890;2024-03-07T00:54:10;4.17;;;2.93;;
60030;SDS011;45901;47.600;9.890;2024-03-07T00:56:38;3.97;;;2.90;;
60030;SDS011;45901;47.600;9.890;2024-03-07T00:59:05;4.40;;;3.10;;
60030;SDS011;45901;47.600;9.890;2024-03-07T01:01:32;4.97;;;2.73;;
60030;SDS011;45901;47.600;9.890;2024-03-07T01:04:01;4.70;;;3.07;;
60030;SDS011;45901;47.600;9.890;2024-03-07T01:06:30;4.10;;;2.60;;
60030;SDS011;45901;47.600;9.890;2024-03-07T01:08:57;3.83;;;2.77;;
60030;SDS011;45901;47.600;9.890;2024-03-07T01:11:25;4.27;;;2.97;;
60030;SDS011;45901;47.600;9.890;2024-03-07T01:13:52;2.93;;;2.30;;
60030;SDS011;45901;47.600;9.890;2024-03-07T01:16:20;3.90;;;2.67;;
60030;SDS011;45901;47.600;9.890;2024-03-07T01:18:48;3.90;;;2.53;;
60030;SDS011;45901;47.600;9.890;2024-03-07T01:21:15;3.43;;;2.40;;
60030;SDS011;45901;47.600;9.890;2024-03-07T01:23:43;3.43;;;2.30;;
60030;SDS011;45901;47.600;9.890;2024-03-07T01:26:11;3.50;;;2.30;;
60030;SDS011;45901;47.600;9.890;2024-03-07T01:28:39;3.97;;;2.80;;
60030;SDS011;45901;47.600;9.890;2024-03-07T01:31:06;3.33;;;2.63;;
60030;SDS011;45901;47.600;9.890;2024-03-07T01:33:35;2.97;;;2.30;;
60030;SDS011;45901;47.600;9.890;2024-03-07T01:36:02;4.30;;;3.00;;
60030;SDS011;45901;47.600;9.890;2024-03-07T01:38:30;4.37;;;3.27;;
60030;SDS011;45901;47.600;9.890;2024-03-07T01:40:59;3.90;;;2.73;;
60030;SDS011;45901;47.600;9.890;2024-03-07T01:43:26;3.53;;;2.57;;
60030;SDS011;45901;47.600;9.890;2024-03-07T01:45:56;4.67;;;3.27;;
60030;SDS011;45901;47.600;9.890;2024-03-07T01:48:25;4.33;;;2.90;;
60030;SDS011;45901;47.600;9.890;2024-03-07T01:50:53;2.83;;;2.20;;
60030;SDS011;45901;47.600;9.890;2024-03-07T01:53:21;2.83;;;1.90;;
60030;SDS011;45901;47.600;9.890;2024-03-07T01:55:50;2.13;;;1.50;;
60030;SDS011;45901;47.600;9.890;2024-03-07T01:58:20;2.27;;;1.77;;
60030;SDS011;45901;47.600;9.890;2024-03-07T02:00:48;3.00;;;2.27;;
60030;SDS011;45901;47.600;9.890;2024-03-07T02:03:15;3.83;;;2.63;;
60030;SDS011;45901;47.600;9.890;2024-03-07T02:05:43;3.77;;;2.60;;
60030;SDS011;45901;47.600;9.890;2024-03-07T02:08:11;3.20;;;2.50;;
60030;SDS011;45901;47.600;9.890;2024-03-07T02:10:40;3.90;;;2.80;;
60030;SDS011;45901;47.600;9.890;2024-03-07T02:13:07;3.93;;;2.47;;
60030;SDS011;45901;47.600;9.890;2024-03-07T02:15:36;4.27;;;2.93;;
60030;SDS011;45901;47.600;9.890;2024-03-07T02:18:03;4.00;;;2.93;;
60030;SDS011;45901;47.600;9.890;2024-03-07T02:20:31;5.17;;;3.13;;
60030;SDS011;45901;47.600;9.890;2024-03-07T02:22:59;4.43;;;3.10;;
60030;SDS011;45901;47.600;9.890;2024-03-07T02:25:27;4.40;;;3.03;;
60030;SDS011;45901;47.600;9.890;2024-03-07T02:27:55;3.73;;;2.67;;
60030;SDS011;45901;47.600;9.890;2024-03-07T02:30:22;3.83;;;2.67;;
60030;SDS011;45901;47.600;9.890;2024-03-07T02:32:49;5.10;;;3.13;;
60030;SDS011;45901;47.600;9.890;2024-03-07T02:35:20;5.27;;;3.73;;
60030;SDS011;45901;47.600;9.890;2024-03-07T02:37:48;5.03;;;3.40;;
60030;SDS011;45901;47.600;9.890;2024-03-07T02:40:16;5.03;;;4.07;;
60030;SDS011;45901;47.600;9.890;2024-03-07T02:42:44;6.07;;;4.23;;
60030;SDS011;45901;47.600;9.890;2024-03-07T02:45:11;6.03;;;4.10;;
60030;SDS011;45901;47.600;9.890;2024-03-07T02:47:39;6.43;;;4.40;;
60030;SDS011;45901;47.600;9.890;2024-03-07T02:50:09;6.00;;;4.00;;
60030;SDS011;45901;47.600;9.890;2024-03-07T02:52:37;4.80;;;3.40;;
60030;SDS011;45901;47.600;9.890;2024-03-07T02:55:04;5.17;;;3.60;;
60030;SDS011;45901;47.600;9.890;2024-03-07T02:57:36;5.20;;;3.50;;
60030;SDS011;45901;47.600;9.890;2024-03-07T03:00:04;4.67;;;3.20;;
60030;SDS011;45901;47.600;9.890;2024-03-07T03:02:44;7.80;;;3.80;;
60030;SDS011;45901;47.600;9.890;2024-03-07T03:05:13;6.23;;;3.83;;
60030;SDS011;45901;47.600;9.890;2024-03-07T03:07:41;5.80;;;3.73;;
60030;SDS011;45901;47.600;9.890;2024-03-07T03:10:09;5.90;;;4.20;;
60030;SDS011;45901;47.600;9.890;2024-03-07T03:12:41;6.57;;;4.50;;
60030;SDS011;45901;47.600;9.890;2024-03-07T03:15:09;7.47;;;4.57;;
60030;SDS011;45901;47.600;9.890;2024-03-07T03:17:36;6.47;;;4.33;;
60030;SDS011;45901;47.600;9.890;2024-03-07T03:20:04;6.37;;;4.50;;
60030;SDS011;45901;47.600;9.890;2024-03-07T03:22:40;5.90;;;4.30;;
60030;SDS011;45901;47.600;9.890;2024-03-07T03:25:09;7.83;;;4.80;;
60030;SDS011;45901;47.600;9.890;2024-03-07T03:27:36;6.60;;;4.40;;
60030;SDS011;45901;47.600;9.890;2024-03-07T03:30:06;7.50;;;5.07;;
60030;SDS011;45901;47.600;9.890;2024-03-07T03:32:38;7.87;;;4.93;;
60030;SDS011;45901;47.600;9.890;2024-03-07T03:35:06;7.10;;;5.30;;
60030;SDS011;45901;47.600;9.890;2024-03-07T03:37:38;9.43;;;5.67;;
60030;SDS011;45901;47.600;9.890;2024-03-07T03:40:07;8.30;;;5.47;;
60030;SDS011;45901;47.600;9.890;2024-03-07T03:42:36;8.33;;;5.30;;
60030;SDS011;45901;47.600;9.890;2024-03-07T03:45:04;9.43;;;6.30;;
60030;SDS011;45901;47.600;9.890;2024-03-07T03:47:34;8.10;;;5.60;;
60030;SDS011;45901;47.600;9.890;2024-03-07T03:50:03;9.20;;;5.60;;
60030;SDS011;45901;47.600;9.890;2024-03-07T03:52:31;8.63;;;5.77;;
60030;SDS011;45901;47.600;9.890;2024-03-07T03:55:00;8.80;;;6.20;;
60030;SDS011;45901;47.600;9.890;2024-03-07T03:57:29;9.23;;;5.90;;
60030;SDS011;45901;47.600;9.890;2024-03-07T03:59:56;9.80;;;6.17;;
60030;SDS011;45901;47.600;9.890;2024-03-07T04:02:25;8.40;;;5.60;;
60030;SDS011;45901;47.600;9.890;2024-03-07T04:04:53;12.10;;;6.03;;
60030;SDS011;45901;47.600;9.890;2024-03-07T04:07:20;9.93;;;6.03;;
60030;SDS011;45901;47.600;9.890;2024-03-07T04:09:48;9.73;;;6.03;;
60030;SDS011;45901;47.600;9.890;2024-03-07T04:12:15;11.57;;;6.47;;
60030;SDS011;45901;47.600;9.890;2024-03-07T04:14:42;8.77;;;5.23;;
60030;SDS011;45901;47.600;9.890;2024-03-07T04:17:10;9.63;;;5.70;;
60030;SDS011;45901;47.600;9.890;2024-03-07T04:19:40;8.03;;;5.40;;
60030;SDS011;45901;47.600;9.890;2024-03-07T04:22:08;8.83;;;5.60;;
60030;SDS011;45901;47.600;9.890;2024-03-07T04:24:35;7.00;;;5.07;;
60030;SDS011;45901;47.600;9.890;2024-03-07T04:27:03;8.83;;;5.63;;
60030;SDS011;45901;47.600;9.890;2024-03-07T04:29:31;8.60;;;5.60;;
60030;SDS011;45901;47.600;9.890;2024-03-07T04:31:59;9.60;;;5.67;;
60030;SDS011;45901;47.600;9.890;2024-03-07T04:34:28;9.40;;;5.93;;
60030;SDS011;45901;47.600;9.890;2024-03-07T04:36:58;10.00;;;6.23;;
60030;SDS011;45901;47.600;9.890;2024-03-07T04:39:26;9.67;;;5.93;;
60030;SDS011;45901;47.600;9.890;2024-03-07T04:41:57;10.97;;;5.70;;
60030;SDS011;45901;47.600;9.890;2024-03-07T04:44:26;9.37;;;5.97;;
60030;SDS011;45901;47.600;9.890;2024-03-07T04:46:53;8.50;;;5.13;;
60030;SDS011;45901;47.600;9.890;2024-03-07T04:49:22;8.80;;;5.67;;
60030;SDS011;45901;47.600;9.890;2024-03-07T04:51:50;8.70;;;5.83;;
60030;SDS011;45901;47.600;9.890;2024-03-07T04:54:19;9.20;;;6.43;;
60030;SDS011;45901;47.600;9.890;2024-03-07T04:56:47;8.87;;;5.90;;
60030;SDS011;45901;47.600;9.890;2024-03-07T04:59:16;9.17;;;5.97;;
60030;SDS011;45901;47.600;9.890;2024-03-07T05:01:44;9.10;;;5.67;;
60030;SDS011;45901;47.600;9.890;2024-03-07T05:04:12;8.50;;;5.50;;
60030;SDS011;45901;47.600;9.890;2024-03-07T05:06:41;8.27;;;5.30;;
60030;SDS011;45901;47.600;9.890;2024-03-07T05:09:09;8.23;;;5.27;;
60030;SDS011;45901;47.600;9.890;2024-03-07T05:11:49;8.70;;;5.20;;
60030;SDS011;45901;47.600;9.890;2024-03-07T05:14:17;8.27;;;5.40;;
60030;SDS011;45901;47.600;9.890;2024-03-07T05:16:45;8.47;;;5.47;;
60030;SDS011;45901;47.600;9.890;2024-03-07T05:19:27;8.33;;;5.57;;
60030;SDS011;45901;47.600;9.890;2024-03-07T05:21:55;8.40;;;5.47;;
60030;SDS011;45901;47.600;9.890;2024-03-07T05:24:23;9.10;;;5.40;;
60030;SDS011;45901;47.600;9.890;2024-03-07T05:26:51;7.73;;;4.90;;
60030;SDS011;45901;47.600;9.890;2024-03-07T05:29:19;7.80;;;5.20;;
60030;SDS011;45901;47.600;9.890;2024-03-07T05:31:46;8.17;;;5.80;;
60030;SDS011;45901;47.600;9.890;2024-03-07T05:34:13;8.70;;;5.00;;
60030;SDS011;45901;47.600;9.890;2024-03-07T05:36:44;7.17;;;5.17;;
60030;SDS011;45901;47.600;9.890;2024-03-07T05:39:11;7.73;;;5.57;;
60030;SDS011;45901;47.600;9.890;2024-03-07T05:41:40;7.03;;;4.53;;
60030;SDS011;45901;47.600;9.890;2024-03-07T05:44:11;8.37;;;5.10;;
60030;SDS011;45901;47.600;9.890;2024-03-07T05:46:38;6.60;;;4.50;;
60030;SDS011;45901;47.600;9.890;2024-03-07T05:49:11;8.23;;;5.27;;
60030;SDS011;45901;47.600;9.890;2024-03-07T05:51:38;6.70;;;4.70;;
60030;SDS011;45901;47.600;9.890;2024-03-07T05:54:07;6.93;;;4.80;;
60030;SDS011;45901;47.600;9.890;2024-03-07T05:56:34;7.00;;;4.57;;
60030;SDS011;45901;47.600;9.890;2024-03-07T05:59:02;7.17;;;4.73;;
60030;SDS011;45901;47.600;9.890;2024-03-07T06:01:31;6.30;;;3.83;;
60030;SDS011;45901;47.600;9.890;2024-03-07T06:03:59;6.93;;;4.90;;
60030;SDS011;45901;47.600;9.890;2024-03-07T06:06:27;11.53;;;6.33;;
60030;SDS011;45901;47.600;9.890;2024-03-07T06:08:57;8.27;;;5.80;;
60030;SDS011;45901;47.600;9.890;2024-03-07T06:11:24;9.87;;;6.03;;
60030;SDS011;45901;47.600;9.890;2024-03-07T06:13:51;10.40;;;6.23;;
60030;SDS011;45901;47.600;9.890;2024-03-07T06:16:18;8.97;;;6.03;;
60030;SDS011;45901;47.600;9.890;2024-03-07T06:18:47;9.20;;;6.30;;
60030;SDS011;45901;47.600;9.890;2024-03-07T06:21:14;9.43;;;6.00;;
60030;SDS011;45901;47.600;9.890;2024-03-07T06:23:41;8.67;;;5.50;;
60030;SDS011;45901;47.600;9.890;2024-03-07T06:26:12;10.20;;;6.00;;
60030;SDS011;45901;47.600;9.890;2024-03-07T06:28:42;8.73;;;5.27;;
60030;SDS011;45901;47.600;9.890;2024-03-07T06:31:10;6.73;;;4.73;;
60030;SDS011;45901;47.600;9.890;2024-03-07T06:33:37;7.13;;;4.30;;
60030;SDS011;45901;47.600;9.890;2024-03-07T06:36:06;7.63;;;4.80;;
60030;SDS011;45901;47.600;9.890;2024-03-07T06:38:34;6.77;;;4.53;;
60030;SDS011;45901;47.600;9.890;2024-03-07T06:41:01;8.83;;;5.77;;
60030;SDS011;45901;47.600;9.890;2024-03-07T06:43:30;7.07;;;4.73;;
60030;SDS011;45901;47.600;9.890;2024-03-07T06:45:57;8.57;;;5.50;;
60030;SDS011;45901;47.600;9.890;2024-03-07T06:48:24;9.67;;;6.17;;
60030;SDS011;45901;47.600;9.890;2024-03-07T06:50:51;9.00;;;5.67;;
60030;SDS011;45901;47.600;9.890;2024-03-07T06:53:19;8.17;;;5.63;;
60030;SDS011;45901;47.600;9.890;2024-03-07T06:55:51;9.10;;;5.50;;
60030;SDS011;45901;47.600;9.890;2024-03-07T06:58:18;9.13;;;6.07;;
60030;SDS011;45901;47.600;9.890;2024-03-07T07:00:46;9.70;;;6.23;;
60030;SDS011;45901;47.600;9.890;2024-03-07T07:03:16;13.17;;;7.73;;
60030;SDS011;45901;47.600;9.890;2024-03-07T07:05:44;19.07;;;9.90;;
60030;SDS011;45901;47.600;9.890;2024-03-07T07:08:12;18.67;;;10.60;;
60030;SDS011;45901;47.600;9.890;2024-03-07T07:10:41;17.10;;;10.03;;
60030;SDS011;45901;47.600;9.890;2024-03-07T07:13:08;15.20;;;9.40;;
60030;SDS011;45901;47.600;9.890;2024-03-07T07:15:36;15.47;;;8.50;;
60030;SDS011;45901;47.600;9.890;2024-03-07T07:18:03;13.43;;;7.20;;
60030;SDS011;45901;47.600;9.890;2024-03-07T07:20:32;13.53;;;6.90;;
60030;SDS011;45901;47.600;9.890;2024-03-07T07:23:00;12.83;;;7.23;;
60030;SDS011;45901;47.600;9.890;2024-03-07T07:25:28;18.80;;;7.67;;
60030;SDS011;45901;47.600;9.890;2024-03-07T07:27:57;16.07;;;8.53;;
60030;SDS011;45901;47.600;9.890;2024-03-07T07:30:25;26.20;;;11.73;;
60030;SDS011;45901;47.600;9.890;2024-03-07T07:32:53;23.27;;;11.33;;
60030;SDS011;45901;47.600;9.890;2024-03-07T07:35:20;21.20;;;11.00;;
60030;SDS011;45901;47.600;9.890;2024-03-07T07:37:48;22.77;;;9.73;;
60030;SDS011;45901;47.600;9.890;2024-03-07T07:40:19;23.33;;;10.83;;
60030;SDS011;45901;47.600;9.890;2024-03-07T07:42:48;20.60;;;9.97;;
60030;SDS011;45901;47.600;9.890;2024-03-07T07:45:19;21.03;;;10.43;;
60030;SDS011;45901;47.600;9.890;2024-03-07T07:47:48;18.47;;;9.33;;
60030;SDS011;45901;47.600;9.890;2024-03-07T07:50:18;20.60;;;9.43;;
60030;SDS011;45901;47.600;9.890;2024-03-07T07:52:47;17.43;;;9.23;;
60030;SDS011;45901;47.600;9.890;2024-03-07T07:55:16;17.63;;;8.80;;
60030;SDS011;45901;47.600;9.890;2024-03-07T07:57:45;18.00;;;8.63;;
60030;SDS011;45901;47.600;9.890;2024-03-07T08:00:14;19.93;;;9.63;;
60030;SDS011;45901;47.600;9.890;2024-03-07T08:02:50;18.57;;;9.37;;
60030;SDS011;45901;47.600;9.890;2024-03-07T08:05:19;20.43;;;9.77;;
60030;SDS011;45901;47.600;9.890;2024-03-07T08:07:48;19.10;;;9.50;;
60030;SDS011;45901;47.600;9.890;2024-03-07T08:10:16;16.47;;;9.50;;
60030;SDS011;45901;47.600;9.890;2024-03-07T08:12:45;16.80;;;8.47;;
60030;SDS011;45901;47.600;9.890;2024-03-07T08:15:13;16.77;;;9.00;;
60030;SDS011;45901;47.600;9.890;2024-03-07T08:17:41;17.80;;;9.43;;
60030;SDS011;45901;47.600;9.890;2024-03-07T08:20:12;16.80;;;8.40;;
60030;SDS011;45901;47.600;9.890;2024-03-07T08:22:41;16.03;;;8.73;;
60030;SDS011;45901;47.600;9.890;2024-03-07T08:25:09;18.03;;;9.13;;
60030;SDS011;45901;47.600;9.890;2024-03-07T08:27:37;15.20;;;8.93;;
60030;SDS011;45901;47.600;9.890;2024-03-07T08:30:07;15.67;;;8.37;;
60030;SDS011;45901;47.600;9.890;2024-03-07T08:32:38;15.80;;;9.23;;
60030;SDS011;45901;47.600;9.890;2024-03-07T08:35:06;17.53;;;9.40;;
60030;SDS011;45901;47.600;9.890;2024-03-07T08:37:36;17.63;;;9.13;;
60030;SDS011;45901;47.600;9.890;2024-03-07T08:40:05;17.83;;;9.30;;
60030;SDS011;45901;47.600;9.890;2024-03-07T08:42:35;15.10;;;8.60;;
60030;SDS011;45901;47.600;9.890;2024-03-07T08:45:03;17.33;;;8.97;;
60030;SDS011;45901;47.600;9.890;2024-03-07T08:47:31;13.77;;;7.87;;
60030;SDS011;45901;47.600;9.890;2024-03-07T08:49:59;17.60;;;9.47;;
60030;SDS011;45901;47.600;9.890;2024-03-07T08:52:27;17.27;;;8.67;;
60030;SDS011;45901;47.600;9.890;2024-03-07T08:54:55;15.83;;;7.83;;
60030;SDS011;45901;47.600;9.890;2024-03-07T08:57:22;15.93;;;7.57;;
60030;SDS011;45901;47.600;9.890;2024-03-07T08:59:50;13.77;;;7.43;;
60030;SDS011;45901;47.600;9.890;2024-03-07T09:02:17;15.47;;;7.73;;
60030;SDS011;45901;47.600;9.890;2024-03-07T09:04:44;13.67;;;7.67;;
60030;SDS011;45901;47.600;9.890;2024-03-07T09:07:11;13.93;;;7.80;;
60030;SDS011;45901;47.600;9.890;2024-03-07T09:09:39;16.63;;;7.67;;
60030;SDS011;45901;47.600;9.890;2024-03-07T09:12:09;13.57;;;6.90;;
60030;SDS011;45901;47.600;9.890;2024-03-07T09:14:37;13.27;;;7.40;;
60030;SDS011;45901;47.600;9.890;2024-03-07T09:17:05;13.20;;;7.17;;
60030;SDS011;45901;47.600;9.890;2024-03-07T09:19:32;11.30;;;6.90;;
60030;SDS011;45901;47.600;9.890;2024-03-07T09:21:59;12.10;;;7.00;;
60030;SDS011;45901;47.600;9.890;2024-03-07T09:24:30;10.47;;;6.00;;
60030;SDS011;45901;47.600;9.890;2024-03-07T09:26:57;11.30;;;6.03;;
60030;SDS011;45901;47.600;9.890;2024-03-07T09:29:25;13.03;;;6.37;;
60030;SDS011;45901;47.600;9.890;2024-03-07T09:31:53;10.23;;;6.03;;
60030;SDS011;45901;47.600;9.890;2024-03-07T09:34:22;10.33;;;5.13;;
60030;SDS011;45901;47.600;9.890;2024-03-07T09:36:51;9.77;;;5.67;;
60030;SDS011;45901;47.600;9.890;2024-03-07T09:39:19;10.90;;;5.60;;
60030;SDS011;45901;47.600;9.890;2024-03-07T09:41:46;10.03;;;5.30;;
60030;SDS011;45901;47.600;9.890;2024-03-07T09:44:16;12.20;;;5.80;;
60030;SDS011;45901;47.600;9.890;2024-03-07T09:46:49;10.07;;;5.00;;
60030;SDS011;45901;47.600;9.890;2024-03-07T09:49:18;11.33;;;5.33;;
60030;SDS011;45901;47.600;9.890;2024-03-07T09:51:46;9.87;;;5.03;;
60030;SDS011;45901;47.600;9.890;2024-03-07T09:54:19;10.87;;;5.37;;
60030;SDS011;45901;47.600;9.890;2024-03-07T09:56:49;14.00;;;7.37;;
60030;SDS011;45901;47.600;9.890;2024-03-07T09:59:19;14.60;;;6.50;;
60030;SDS011;45901;47.600;9.890;2024-03-07T10:01:53;12.50;;;6.27;;
60030;SDS011;45901;47.600;9.890;2024-03-07T10:04:27;12.07;;;6.60;;
60030;SDS011;45901;47.600;9.890;2024-03-07T10:07:01;14.70;;;7.13;;
60030;SDS011;45901;47.600;9.890;2024-03-07T10:09:28;15.93;;;7.93;;
60030;SDS011;45901;47.600;9.890;2024-03-07T10:11:57;16.50;;;8.43;;
60030;SDS011;45901;47.600;9.890;2024-03-07T10:14:24;16.43;;;8.00;;
60030;SDS011;45901;47.600;9.890;2024-03-07T10:16:54;16.70;;;8.47;;
60030;SDS011;45901;47.600;9.890;2024-03-07T10:19:22;17.83;;;8.40;;
60030;SDS011;45901;47.600;9.890;2024-03-07T10:21:50;16.77;;;8.47;;
60030;SDS011;45901;47.600;9.890;2024-03-07T10:24:23;14.87;;;8.03;;
60030;SDS011;45901;47.600;9.890;2024-03-07T10:26:51;14.17;;;8.00;;
60030;SDS011;45901;47.600;9.890;2024-03-07T10:29:18;17.83;;;8.90;;
60030;SDS011;45901;47.600;9.890;2024-03-07T10:31:46;19.07;;;9.43;;
60030;SDS011;45901;47.600;9.890;2024-03-07T10:34:15;20.13;;;9.50;;
60030;SDS011;45901;47.600;9.890;2024-03-07T10:36:42;20.43;;;9.63;;
60030;SDS011;45901;47.600;9.890;2024-03-07T10:39:10;20.23;;;10.10;;
60030;SDS011;45901;47.600;9.890;2024-03-07T10:41:42;22.37;;;9.93;;
60030;SDS011;45901;47.600;9.890;2024-03-07T10:44:15;20.73;;;10.53;;
60030;SDS011;45901;47.600;9.890;2024-03-07T10:46:50;21.17;;;10.23;;
60030;SDS011;45901;47.600;9.890;2024-03-07T10:49:25;26.53;;;12.30;;
60030;SDS011;45901;47.600;9.890;2024-03-07T10:51:58;25.30;;;12.10;;
60030;SDS011;45901;47.600;9.890;2024-03-07T10:54:33;22.10;;;11.77;;
60030;SDS011;45901;47.600;9.890;2024-03-07T10:57:15;24.37;;;11.97;;
60030;SDS011;45901;47.600;9.890;2024-03-07T10:59:49;23.13;;;11.80;;
60030;SDS011;45901;47.600;9.890;2024-03-07T11:02:24;25.57;;;12.00;;
60030;SDS011;45901;47.600;9.890;2024-03-07T11:05:01;27.07;;;12.73;;
60030;SDS011;45901;47.600;9.890;2024-03-07T11:07:33;29.60;;;14.10;;
60030;SDS011;45901;47.600;9.890;2024-03-07T11:10:01;28.37;;;14.00;;
60030;SDS011;45901;47.600;9.890;2024-03-07T11:12:36;24.87;;;12.87;;
60030;SDS011;45901;47.600;9.890;2024-03-07T11:15:07;28.07;;;13.40;;
60030;SDS011;45901;47.600;9.890;2024-03-07T11:17:40;30.73;;;13.93;;
60030;SDS011;45901;47.600;9.890;2024-03-07T11:20:19;28.17;;;12.73;;
60030;SDS011;45901;47.600;9.890;2024-03-07T11:22:48;32.10;;;14.97;;
60030;SDS011;45901;47.600;9.890;2024-03-07T11:25:17;29.30;;;14.47;;
60030;SDS011;45901;47.600;9.890;2024-03-07T11:27:53;33.03;;;13.97;;
60030;SDS011;45901;47.600;9.890;2024-03-07T11:30:22;27.23;;;14.03;;
60030;SDS011;45901;47.600;9.890;2024-03-07T11:32:50;26.50;;;13.57;;
60030;SDS011;45901;47.600;9.890;2024-03-07T11:35:21;25.77;;;13.00;;
60030;SDS011;45901;47.600;9.890;2024-03-07T11:38:00;24.93;;;13.50;;
60030;SDS011;45901;47.600;9.890;2024-03-07T11:40:45;25.47;;;13.30;;
60030;SDS011;45901;47.600;9.890;2024-03-07T11:43:16;26.27;;;13.73;;
60030;SDS011;45901;47.600;9.890;2024-03-07T11:45:43;24.73;;;14.43;;
60030;SDS011;45901;47.600;9.890;2024-03-07T11:48:17;29.20;;;14.47;;
60030;SDS011;45901;47.600;9.890;2024-03-07T11:50:48;31.20;;;14.73;;
60030;SDS011;45901;47.600;9.890;2024-03-07T11:53:15;31.27;;;14.87;;
60030;SDS011;45901;47.600;9.890;2024-03-07T11:55:43;27.70;;;13.27;;
60030;SDS011;45901;47.600;9.890;2024-03-07T11:58:11;29.30;;;13.57;;
60030;SDS011;45901;47.600;9.890;2024-03-07T12:00:41;24.70;;;12.87;;
60030;SDS011;45901;47.600;9.890;2024-03-07T12:03:10;21.50;;;11.73;;
60030;SDS011;45901;47.600;9.890;2024-03-07T12:05:39;20.13;;;11.30;;
60030;SDS011;45901;47.600;9.890;2024-03-07T12:08:09;23.23;;;12.53;;
60030;SDS011;45901;47.600;9.890;2024-03-07T12:10:37;21.23;;;11.37;;
60030;SDS011;45901;47.600;9.890;2024-03-07T12:13:08;18.97;;;10.83;;
60030;SDS011;45901;47.600;9.890;2024-03-07T12:15:37;16.40;;;9.47;;
60030;SDS011;45901;47.600;9.890;2024-03-07T12:18:06;18.73;;;10.63;;
60030;SDS011;45901;47.600;9.890;2024-03-07T12:20:38;18.43;;;9.77;;
60030;SDS011;45901;47.600;9.890;2024-03-07T12:23:07;17.23;;;9.23;;
60030;SDS011;45901;47.600;9.890;2024-03-07T12:25:37;17.23;;;9.13;;
60030;SDS011;45901;47.600;9.890;2024-03-07T12:28:05;18.90;;;10.57;;
60030;SDS011;45901;47.600;9.890;2024-03-07T12:30:46;17.73;;;10.20;;
60030;SDS011;45901;47.600;9.890;2024-03-07T12:33:16;22.03;;;11.80;;
60030;SDS011;45901;47.600;9.890;2024-03-07T12:35:45;16.23;;;9.63;;
60030;SDS011;45901;47.600;9.890;2024-03-07T12:38:16;15.37;;;9.30;;
60030;SDS011;45901;47.600;9.890;2024-03-07T12:40:44;15.97;;;9.83;;
60030;SDS011;45901;47.600;9.890;2024-03-07T12:43:13;22.53;;;10.70;;
60030;SDS011;45901;47.600;9.890;2024-03-07T12:45:49;21.30;;;10.07;;
60030;SDS011;45901;47.600;9.890;2024-03-07T12:48:18;21.10;;;10.20;;
60030;SDS011;45901;47.600;9.890;2024-03-07T12:50:47;17.10;;;9.87;;
60030;SDS011;45901;47.600;9.890;2024-03-07T12:53:19;18.67;;;10.27;;
60030;SDS011;45901;47.600;9.890;2024-03-07T12:55:47;22.10;;;11.70;;
60030;SDS011;45901;47.600;9.890;2024-03-07T12:58:15;21.20;;;12.23;;
60030;SDS011;45901;47.600;9.890;2024-03-07T13:00:43;23.87;;;13.07;;
60030;SDS011;45901;47.600;9.890;2024-03-07T13:03:10;21.57;;;12.17;;
60030;SDS011;45901;47.600;9.890;2024-03-07T13:05:39;20.93;;;12.17;;
60030;SDS011;45901;47.600;9.890;2024-03-07T13:08:08;25.80;;;13.73;;
60030;SDS011;45901;47.600;9.890;2024-03-07T13:10:39;24.70;;;14.13;;
60030;SDS011;45901;47.600;9.890;2024-03-07T13:13:08;25.37;;;14.13;;
60030;SDS011;45901;47.600;9.890;2024-03-07T13:15:36;25.33;;;13.37;;
60030;SDS011;45901;47.600;9.890;2024-03-07T13:18:04;28.93;;;13.80;;
60030;SDS011;45901;47.600;9.890;2024-03-07T13:20:32;27.70;;;14.50;;
60030;SDS011;45901;47.600;9.890;2024-03-07T13:22:59;26.60;;;14.10;;
60030;SDS011;45901;47.600;9.890;2024-03-07T13:25:27;27.13;;;14.97;;
60030;SDS011;45901;47.600;9.890;2024-03-07T13:28:00;28.73;;;15.47;;
60030;SDS011;45901;47.600;9.890;2024-03-07T13:30:32;28.43;;;15.70;;
60030;SDS011;45901;47.600;9.890;2024-03-07T13:33:01;28.63;;;15.93;;
60030;SDS011;45901;47.600;9.890;2024-03-07T13:35:30;27.93;;;15.50;;
60030;SDS011;45901;47.600;9.890;2024-03-07T13:37:58;29.77;;;16.07;;
60030;SDS011;45901;47.600;9.890;2024-03-07T13:40:26;26.43;;;14.77;;
60030;SDS011;45901;47.600;9.890;2024-03-07T13:42:56;27.73;;;15.10;;
60030;SDS011;45901;47.600;9.890;2024-03-07T13:45:26;25.47;;;14.50;;
60030;SDS011;45901;47.600;9.890;2024-03-07T13:47:56;27.80;;;15.37;;
60030;SDS011;45901;47.600;9.890;2024-03-07T13:50:27;28.50;;;14.57;;
60030;SDS011;45901;47.600;9.890;2024-03-07T13:52:55;29.93;;;15.33;;
60030;SDS011;45901;47.600;9.890;2024-03-07T13:55:53;23.57;;;13.37;;
60030;SDS011;45901;47.600;9.890;2024-03-07T13:58:42;25.70;;;13.90;;
60030;SDS011;45901;47.600;9.890;2024-03-07T14:01:37;26.00;;;15.07;;
60030;SDS011;45901;47.600;9.890;2024-03-07T14:07:41;26.00;;;15.27;;
60030;SDS011;45901;47.600;9.890;2024-03-07T14:13:45;28.13;;;15.20;;
60030;SDS011;45901;47.600;9.890;2024-03-07T14:16:49;28.83;;;16.33;;
60030;SDS011;45901;47.600;9.890;2024-03-07T14:23:20;22.90;;;13.17;;
60030;SDS011;45901;47.600;9.890;2024-03-07T14:26:14;22.37;;;12.67;;
60030;SDS011;45901;47.600;9.890;2024-03-07T14:29:18;21.90;;;12.57;;
60030;SDS011;45901;47.600;9.890;2024-03-07T14:31:58;22.60;;;12.23;;
60030;SDS011;45901;47.600;9.890;2024-03-07T14:34:29;24.03;;;13.23;;
60030;SDS011;45901;47.600;9.890;2024-03-07T14:37:17;21.97;;;12.87;;
60030;SDS011;45901;47.600;9.890;2024-03-07T14:39:49;28.33;;;14.90;;
60030;SDS011;45901;47.600;9.890;2024-03-07T14:42:25;26.53;;;15.43;;
60030;SDS011;45901;47.600;9.890;2024-03-07T14:45:21;27.73;;;15.13;;
60030;SDS011;45901;47.600;9.890;2024-03-07T14:47:55;26.73;;;15.83;;
60030;SDS011;45901;47.600;9.890;2024-03-07T14:50:23;27.17;;;16.13;;
60030;SDS011;45901;47.600;9.890;2024-03-07T14:52:54;26.33;;;14.37;;
60030;SDS011;45901;47.600;9.890;2024-03-07T14:55:22;28.00;;;15.40;;
60030;SDS011;45901;47.600;9.890;2024-03-07T14:57:49;28.07;;;15.87;;
60030;SDS011;45901;47.600;9.890;2024-03-07T15:00:17;29.57;;;16.03;;